Time;durP1;ratioP1;P1;durP2;ratioP2;P2;SDS_P1;SDS_P2;PMS_P1;PMS_P2;Temp;Humidity;BMP_temperature;BMP_pressure;BME280_temperature;BME280_humidity;BME280_pressure;Samples;Min_cycle;Max_cycle;Signal;HPM_P1;HPM_P2
2021/07/25 00:02:22;;;;;;;3.28;3.08;;;25.20;65.00;;;;;;5058169;28;20032;-28
2021/07/25 00:04:48;;;;;;;3.47;3.28;;;25.20;64.90;;;;;;5053511;28;20798;-30
2021/07/25 00:07:13;;;;;;;3.67;3.47;;;25.20;65.00;;;;;;5055017;28;20092;-27
2021/07/25 00:09:39;;;;;;;3.42;3.20;;;25.10;64.90;;;;;;5028990;28;20101;-32
2021/07/25 00:12:05;;;;;;;3.65;3.45;;;25.10;65.10;;;;;;5065061;28;20044;-29
2021/07/25 00:14:30;;;;;;;3.47;2.92;;;25.10;65.00;;;;;;5062579;28;20036;-29
2021/07/25 00:16:56;;;;;;;3.85;3.25;;;25.10;65.10;;;;;;5065649;28;20043;-29
2021/07/25 00:19:21;;;;;;;3.33;3.03;;;25.10;65.00;;;;;;5050555;28;20103;-25
2021/07/25 00:21:47;;;;;;;3.20;2.97;;;25.10;65.00;;;;;;5064115;28;20111;-29
2021/07/25 00:24:13;;;;;;;3.08;2.88;;;25.10;64.90;;;;;;5054348;28;20029;-32
2021/07/25 00:26:45;;;;;;;3.38;3.17;;;25.10;64.80;;;;;;5036295;28;20029;-30
2021/07/25 00:29:11;;;;;;;3.60;3.30;;;25.10;64.90;;;;;;5053817;28;20517;-28
2021/07/25 00:31:37;;;;;;;3.40;3.15;;;25.00;64.80;;;;;;5050275;28;20056;-26
2021/07/25 00:34:03;;;;;;;3.40;3.10;;;25.00;64.80;;;;;;5052636;28;20394;-26
2021/07/25 00:36:28;;;;;;;2.95;2.75;;;25.00;64.60;;;;;;5036232;28;20033;-24
2021/07/25 00:38:54;;;;;;;2.80;2.60;;;25.00;64.50;;;;;;5035834;28;20071;-30
2021/07/25 00:41:19;;;;;;;3.30;2.63;;;25.00;64.60;;;;;;5053830;28;20032;-26
2021/07/25 00:43:46;;;;;;;2.70;2.50;;;25.00;64.60;;;;;;5051055;28;20313;-28
2021/07/25 00:46:12;;;;;;;3.00;2.90;;;25.00;64.50;;;;;;5033446;28;20033;-26
2021/07/25 00:48:38;;;;;;;2.78;2.63;;;25.00;64.30;;;;;;5062716;28;20047;-26
2021/07/25 00:51:04;;;;;;;2.58;2.40;;;25.00;64.20;;;;;;5061928;28;20025;-27
2021/07/25 00:53:34;;;;;;;2.55;2.33;;;25.00;64.80;;;;;;5060620;28;20044;-25
2021/07/25 00:56:01;;;;;;;4.00;2.63;;;24.90;64.00;;;;;;5035349;28;20033;-30
2021/07/25 00:58:26;;;;;;;2.13;2.03;;;24.90;64.00;;;;;;5032282;28;20405;-28
2021/07/25 01:00:52;;;;;;;2.38;2.17;;;24.90;63.90;;;;;;5063796;28;20023;-28
2021/07/25 01:03:22;;;;;;;2.47;2.28;;;24.90;64.00;;;;;;5061842;28;20032;-24
2021/07/25 01:06:02;;;;;;;2.60;2.40;;;24.90;64.00;;;;;;5061816;28;20032;-31
2021/07/25 01:08:33;;;;;;;2.42;2.30;;;24.90;63.90;;;;;;5043231;28;20036;-25
2021/07/25 01:10:58;;;;;;;2.25;2.15;;;24.90;63.80;;;;;;5044201;28;20099;-29
2021/07/25 01:13:27;;;;;;;2.80;2.60;;;24.90;63.70;;;;;;5031023;28;20662;-32
2021/07/25 01:15:53;;;;;;;2.33;2.22;;;24.90;63.80;;;;;;5063677;28;20109;-27
2021/07/25 01:18:19;;;;;;;2.30;2.20;;;24.90;63.80;;;;;;5036560;28;20037;-31
2021/07/25 01:20:45;;;;;;;2.60;2.40;;;24.90;63.80;;;;;;5052628;28;20021;-34
2021/07/25 01:23:10;;;;;;;2.00;1.90;;;24.90;63.90;;;;;;5052966;28;20033;-29
2021/07/25 01:25:36;;;;;;;2.45;2.25;;;24.90;63.70;;;;;;5050004;28;20028;-29
2021/07/25 01:28:10;;;;;;;2.20;2.10;;;24.90;63.70;;;;;;5063694;28;20767;-29
2021/07/25 01:30:38;;;;;;;2.40;2.30;;;24.90;63.60;;;;;;5063744;28;20060;-27
2021/07/25 01:33:08;;;;;;;2.60;2.40;;;24.90;63.80;;;;;;5047166;28;20028;-27
2021/07/25 01:35:33;;;;;;;2.53;2.00;;;24.90;63.80;;;;;;5063284;28;20023;-31
2021/07/25 01:37:59;;;;;;;2.13;2.03;;;24.80;63.90;;;;;;5031292;28;20033;-32
2021/07/25 01:40:25;;;;;;;2.05;1.95;;;24.80;63.60;;;;;;5050876;28;20158;-27
2021/07/25 01:42:59;;;;;;;2.05;1.95;;;24.80;63.60;;;;;;5067063;28;20040;-31
2021/07/25 01:45:25;;;;;;;1.75;1.65;;;24.80;63.60;;;;;;5064692;28;20040;-31
2021/07/25 01:47:50;;;;;;;2.95;1.90;;;24.80;63.60;;;;;;5064824;28;20037;-27
2021/07/25 01:50:16;;;;;;;2.22;2.10;;;24.80;63.70;;;;;;5064878;28;20048;-30
2021/07/25 01:52:42;;;;;;;2.00;1.90;;;24.80;63.60;;;;;;5050325;28;20031;-31
2021/07/25 01:55:08;;;;;;;2.10;1.63;;;24.80;63.60;;;;;;5067502;28;20099;-25
2021/07/25 01:57:33;;;;;;;1.80;1.70;;;24.70;63.70;;;;;;5056609;28;20017;-27
2021/07/25 01:59:59;;;;;;;1.92;1.83;;;24.80;63.60;;;;;;5057190;28;20595;-28
2021/07/25 02:02:24;;;;;;;1.85;1.65;;;24.80;63.60;;;;;;5056430;28;20577;-28
2021/07/25 02:04:50;;;;;;;2.10;1.98;;;24.80;63.60;;;;;;5054993;28;20032;-31
2021/07/25 02:07:16;;;;;;;2.00;1.90;;;24.70;63.70;;;;;;5053562;28;20450;-27
2021/07/25 02:09:41;;;;;;;2.25;2.15;;;24.70;63.70;;;;;;5058659;28;20493;-26
2021/07/25 02:12:08;;;;;;;2.40;1.98;;;24.70;63.70;;;;;;5059883;28;20068;-26
2021/07/25 02:14:34;;;;;;;1.65;1.55;;;24.70;63.70;;;;;;5059788;28;20029;-32
2021/07/25 02:17:00;;;;;;;1.85;1.75;;;24.70;63.80;;;;;;5059344;28;20106;-29
2021/07/25 02:19:26;;;;;;;1.98;1.88;;;24.70;63.80;;;;;;5056344;28;20104;-27
2021/07/25 02:21:52;;;;;;;1.90;1.80;;;24.70;63.70;;;;;;5059210;28;20112;-28
2021/07/25 02:24:19;;;;;;;2.03;1.88;;;24.70;63.70;;;;;;5060109;28;20020;-26
2021/07/25 02:26:45;;;;;;;1.95;1.85;;;24.70;63.80;;;;;;5059801;28;20033;-28
2021/07/25 02:29:11;;;;;;;1.75;1.65;;;24.70;63.60;;;;;;5059724;28;20051;-29
2021/07/25 02:31:36;;;;;;;1.55;1.45;;;24.70;63.90;;;;;;5056309;28;20029;-30
2021/07/25 02:34:02;;;;;;;1.50;1.45;;;24.70;63.80;;;;;;5058130;28;20041;-28
2021/07/25 02:36:27;;;;;;;1.58;1.48;;;24.70;63.90;;;;;;5059625;28;20022;-26
2021/07/25 02:38:53;;;;;;;1.45;1.40;;;24.70;63.90;;;;;;5059722;28;20398;-25
2021/07/25 02:41:19;;;;;;;1.58;1.48;;;24.70;63.70;;;;;;5059528;28;20078;-24
2021/07/25 02:43:44;;;;;;;2.05;1.83;;;24.70;63.80;;;;;;5056787;28;20055;-28
2021/07/25 02:46:10;;;;;;;1.75;1.65;;;24.70;63.80;;;;;;5057171;28;20115;-31
2021/07/25 02:48:35;;;;;;;1.60;1.50;;;24.70;64.60;;;;;;5059290;28;20135;-28
2021/07/25 02:51:01;;;;;;;1.25;1.20;;;24.70;63.90;;;;;;5059770;28;20025;-28
2021/07/25 02:53:27;;;;;;;2.17;1.60;;;24.60;63.80;;;;;;5059605;28;20036;-25
2021/07/25 02:55:53;;;;;;;2.17;1.52;;;24.70;64.00;;;;;;5057577;28;20040;-28
2021/07/25 02:58:18;;;;;;;1.50;1.40;;;24.60;64.70;;;;;;5056950;28;20387;-27
2021/07/25 03:00:44;;;;;;;1.67;1.58;;;24.60;64.00;;;;;;5058585;28;20493;-31
2021/07/25 03:03:10;;;;;;;1.98;1.38;;;24.60;64.10;;;;;;5059031;28;20032;-30
2021/07/25 03:05:35;;;;;;;1.40;1.30;;;24.60;64.10;;;;;;5059358;28;20025;-26
2021/07/25 03:08:01;;;;;;;1.27;1.23;;;24.60;64.00;;;;;;5058882;28;20041;-30
2021/07/25 03:10:26;;;;;;;1.67;1.55;;;24.60;64.40;;;;;;5055110;28;20040;-29
2021/07/25 03:12:52;;;;;;;1.60;1.50;;;24.60;64.20;;;;;;5058021;28;20399;-28
2021/07/25 03:15:18;;;;;;;1.30;1.30;;;24.60;65.10;;;;;;5059059;28;20028;-27
2021/07/25 03:17:43;;;;;;;1.50;1.40;;;24.60;64.40;;;;;;5040977;28;20028;-31
2021/07/25 03:20:10;;;;;;;1.58;1.48;;;24.60;64.30;;;;;;5040697;28;20497;-26
2021/07/25 03:22:35;;;;;;;1.45;1.40;;;24.60;64.20;;;;;;5054817;28;20086;-24
2021/07/25 03:25:02;;;;;;;1.55;1.45;;;24.60;64.20;;;;;;5039740;28;20033;-26
2021/07/25 03:27:28;;;;;;;1.20;1.20;;;24.60;64.30;;;;;;5059102;28;20586;-27
2021/07/25 03:29:53;;;;;;;1.50;1.40;;;24.60;64.30;;;;;;5058570;28;20119;-26
2021/07/25 03:32:19;;;;;;;1.08;1.08;;;24.60;64.30;;;;;;5058496;28;20395;-30
2021/07/25 03:34:45;;;;;;;1.27;1.27;;;24.60;64.30;;;;;;5054962;28;20501;-24
2021/07/25 03:37:11;;;;;;;1.40;1.15;;;24.50;64.30;;;;;;5056309;28;20025;-28
2021/07/25 03:39:37;;;;;;;1.50;1.40;;;24.60;64.50;;;;;;5058305;28;20025;-31
2021/07/25 03:42:03;;;;;;;1.20;1.20;;;24.60;64.40;;;;;;5058279;28;20110;-25
2021/07/25 03:44:29;;;;;;;1.08;1.08;;;24.50;64.20;;;;;;5040612;28;20029;-26
2021/07/25 03:46:55;;;;;;;1.00;0.93;;;24.60;64.30;;;;;;5066285;28;20028;-27
2021/07/25 03:49:20;;;;;;;1.00;1.00;;;24.60;64.30;;;;;;5069662;28;20385;-24
2021/07/25 03:51:46;;;;;;;1.23;1.23;;;24.60;64.40;;;;;;5068532;28;20133;-26
2021/07/25 03:54:11;;;;;;;1.20;1.20;;;24.60;64.30;;;;;;5060165;28;20035;-25
2021/07/25 03:56:37;;;;;;;0.95;0.95;;;24.60;64.40;;;;;;5040162;28;20052;-31
2021/07/25 03:59:03;;;;;;;2.85;1.13;;;24.60;64.40;;;;;;5040342;28;20117;-26
2021/07/25 04:01:28;;;;;;;1.30;1.20;;;24.50;64.30;;;;;;5053755;28;20382;-25
2021/07/25 04:03:54;;;;;;;0.80;0.80;;;24.60;64.40;;;;;;5057217;28;20029;-26
2021/07/25 04:06:19;;;;;;;1.20;1.15;;;24.60;64.40;;;;;;5058097;28;20098;-27
2021/07/25 04:08:45;;;;;;;1.00;1.00;;;24.50;64.20;;;;;;5057807;28;20041;-30
2021/07/25 04:11:16;;;;;;;0.90;0.90;;;24.50;64.50;;;;;;5057712;28;20041;-27
2021/07/25 04:13:42;;;;;;;1.05;1.05;;;24.60;64.40;;;;;;5054775;28;20033;-30
2021/07/25 04:16:07;;;;;;;1.77;1.15;;;24.60;64.40;;;;;;5055508;28;20381;-25
2021/07/25 04:18:33;;;;;;;1.13;1.02;;;24.60;64.60;;;;;;5058203;28;20029;-29
2021/07/25 04:20:58;;;;;;;1.08;1.08;;;24.60;64.60;;;;;;5057376;28;20017;-29
2021/07/25 04:23:24;;;;;;;0.85;0.85;;;24.60;64.70;;;;;;5039819;28;20044;-26
2021/07/25 04:25:49;;;;;;;1.42;1.10;;;24.50;64.40;;;;;;5055535;28;20028;-26
2021/07/25 04:28:15;;;;;;;1.00;1.00;;;24.50;64.50;;;;;;5062423;28;20126;-24
2021/07/25 04:30:41;;;;;;;1.25;1.17;;;24.50;64.70;;;;;;5066993;28;20055;-25
2021/07/25 04:33:08;;;;;;;0.85;0.85;;;24.50;64.60;;;;;;5042176;28;20397;-24
2021/07/25 04:35:37;;;;;;;1.27;1.17;;;24.50;64.80;;;;;;5057512;28;20047;-25
2021/07/25 04:38:03;;;;;;;1.17;1.02;;;24.50;64.80;;;;;;5057159;28;20058;-27
2021/07/25 04:40:29;;;;;;;1.48;1.38;;;24.50;64.80;;;;;;5053046;28;20477;-29
2021/07/25 04:42:56;;;;;;;1.00;1.00;;;24.50;64.80;;;;;;5056623;28;20028;-25
2021/07/25 04:45:47;;;;;;;1.00;1.00;;;24.50;64.70;;;;;;5039672;28;20025;-35
2021/07/25 04:48:37;;;;;;;1.10;1.10;;;24.50;64.70;;;;;;5057357;28;20037;-29
2021/07/25 04:51:06;;;;;;;1.20;1.20;;;24.50;64.90;;;;;;5057997;28;20052;-26
2021/07/25 04:53:41;;;;;;;3.15;1.30;;;24.50;64.70;;;;;;5057036;28;20613;-35
2021/07/25 04:56:08;;;;;;;1.10;1.10;;;24.50;64.80;;;;;;5057150;28;20064;-30
2021/07/25 04:58:38;;;;;;;1.38;1.27;;;24.50;64.70;;;;;;5052841;28;20464;-23
2021/07/25 05:01:04;;;;;;;1.45;1.35;;;24.50;65.60;;;;;;5055189;28;20032;-28
2021/07/25 05:03:30;;;;;;;1.25;1.25;;;24.40;64.80;;;;;;5039799;28;20032;-24
2021/07/25 05:05:56;;;;;;;1.25;1.15;;;24.40;64.70;;;;;;5057034;28;20032;-26
2021/07/25 05:08:22;;;;;;;1.13;1.10;;;24.50;64.70;;;;;;5056850;28;20044;-28
2021/07/25 05:10:48;;;;;;;1.42;1.27;;;24.50;64.80;;;;;;5054226;28;20120;-27
2021/07/25 05:13:14;;;;;;;1.40;1.30;;;24.40;64.70;;;;;;5020325;28;20025;-27
2021/07/25 05:15:41;;;;;;;1.33;1.13;;;24.40;64.80;;;;;;5022039;28;20028;-25
2021/07/25 05:18:07;;;;;;;2.05;1.40;;;24.40;64.80;;;;;;5039107;28;20037;-30
2021/07/25 05:20:47;;;;;;;1.50;1.40;;;24.40;64.60;;;;;;5056765;28;20078;-23
2021/07/25 05:23:21;;;;;;;1.50;1.40;;;24.50;64.80;;;;;;5056812;28;20032;-29
2021/07/25 05:25:49;;;;;;;1.50;1.40;;;24.50;64.70;;;;;;5053886;28;20055;-26
2021/07/25 05:28:14;;;;;;;2.63;1.38;;;24.40;64.50;;;;;;5054186;28;20111;-27
2021/07/25 05:30:41;;;;;;;1.45;1.35;;;24.40;64.70;;;;;;5038159;28;20509;-24
2021/07/25 05:33:07;;;;;;;1.20;1.20;;;24.40;65.40;;;;;;5027438;28;20687;-27
2021/07/25 05:35:33;;;;;;;1.10;1.10;;;24.40;64.70;;;;;;5065284;28;20021;-24
2021/07/25 05:37:59;;;;;;;1.40;1.30;;;24.40;64.60;;;;;;5065906;28;20470;-27
2021/07/25 05:40:25;;;;;;;1.30;1.20;;;24.40;64.50;;;;;;5067756;28;20028;-26
2021/07/25 05:42:50;;;;;;;1.70;1.40;;;24.40;64.70;;;;;;5068741;28;20025;-23
2021/07/25 05:45:16;;;;;;;1.92;1.80;;;24.40;64.60;;;;;;5068838;28;20032;-27
2021/07/25 05:47:41;;;;;;;1.50;1.40;;;24.40;64.80;;;;;;5068759;28;20405;-25
2021/07/25 05:50:08;;;;;;;1.55;1.30;;;24.40;64.60;;;;;;5071538;28;20111;-25
2021/07/25 05:52:46;;;;;;;1.33;1.25;;;24.40;64.60;;;;;;5038436;28;20111;-28
2021/07/25 05:55:12;;;;;;;1.80;1.63;;;24.40;65.50;;;;;;5070633;28;20090;-26
2021/07/25 05:57:38;;;;;;;1.50;1.40;;;24.40;64.60;;;;;;5059928;28;20452;-26
2021/07/25 06:00:06;;;;;;;1.33;1.25;;;24.40;64.80;;;;;;5060209;28;20394;-29
2021/07/25 06:02:31;;;;;;;1.88;1.73;;;24.40;64.60;;;;;;5060352;28;20170;-27
2021/07/25 06:04:57;;;;;;;2.40;1.50;;;24.40;64.50;;;;;;5059374;28;20544;-27
2021/07/25 06:07:22;;;;;;;1.83;1.73;;;24.40;64.60;;;;;;5054318;28;20040;-24
2021/07/25 06:09:48;;;;;;;1.80;1.70;;;24.40;64.50;;;;;;4714302;28;9999711;-27
2021/07/25 06:12:14;;;;;;;1.65;1.55;;;24.40;64.70;;;;;;5059103;28;20083;-27
2021/07/25 06:14:39;;;;;;;2.25;2.05;;;24.40;65.40;;;;;;5060159;28;20032;-24
2021/07/25 06:17:05;;;;;;;4.60;3.25;;;24.40;64.80;;;;;;5059724;28;20056;-25
2021/07/25 06:19:31;;;;;;;4.88;4.47;;;24.30;63.70;;;;;;5057598;28;20049;-25
2021/07/25 06:21:57;;;;;;;5.45;4.95;;;24.00;64.50;;;;;;5064650;28;20047;-28
2021/07/25 06:24:23;;;;;;;4.47;4.18;;;23.80;65.20;;;;;;5065196;28;20029;-26
2021/07/25 06:26:49;;;;;;;6.28;4.43;;;23.60;66.20;;;;;;5062328;28;20027;-27
2021/07/25 06:29:15;;;;;;;5.00;4.50;;;23.30;67.50;;;;;;5057943;28;20126;-27
2021/07/25 06:31:40;;;;;;;4.82;4.30;;;23.10;68.20;;;;;;5059101;28;20174;-25
2021/07/25 06:34:06;;;;;;;4.90;4.43;;;23.10;68.20;;;;;;5055226;28;20033;-27
2021/07/25 06:36:32;;;;;;;4.93;3.97;;;23.00;68.60;;;;;;5061334;28;20025;-29
2021/07/25 06:38:58;;;;;;;5.88;3.75;;;22.90;68.60;;;;;;5044088;28;20033;-25
2021/07/25 06:41:23;;;;;;;4.82;4.07;;;22.70;69.60;;;;;;5063345;28;20550;-27
2021/07/25 06:43:49;;;;;;;5.30;3.63;;;22.60;70.00;;;;;;5068562;28;20032;-28
2021/07/25 06:46:15;;;;;;;4.05;3.65;;;22.60;70.10;;;;;;5069552;28;20029;-32
2021/07/25 06:48:40;;;;;;;4.63;4.32;;;22.30;71.40;;;;;;5058638;28;20071;-28
2021/07/25 06:51:06;;;;;;;3.75;3.40;;;22.00;71.80;;;;;;5051366;28;20401;-28
2021/07/25 06:53:32;;;;;;;5.22;4.53;;;22.30;70.90;;;;;;5062959;28;20021;-25
2021/07/25 06:55:59;;;;;;;4.38;3.95;;;22.30;70.90;;;;;;5066324;28;20531;-28
2021/07/25 06:58:25;;;;;;;3.88;3.53;;;22.40;70.80;;;;;;5066538;28;20473;-28
2021/07/25 07:00:50;;;;;;;3.60;3.17;;;22.40;70.70;;;;;;5056556;28;20029;-28
2021/07/25 07:03:19;;;;;;;3.90;3.60;;;22.40;71.10;;;;;;5057684;28;20406;-29
2021/07/25 07:05:45;;;;;;;4.38;3.53;;;22.50;71.00;;;;;;5043243;28;20036;-30
2021/07/25 07:08:11;;;;;;;5.18;3.53;;;22.40;71.00;;;;;;5069254;28;20036;-27
2021/07/25 07:10:38;;;;;;;4.85;3.55;;;22.40;71.00;;;;;;5062058;28;20029;-32
2021/07/25 07:13:07;;;;;;;3.70;3.50;;;22.50;70.80;;;;;;5044070;28;20049;-26
2021/07/25 07:15:33;;;;;;;4.43;3.15;;;22.60;70.50;;;;;;5063636;28;20028;-27
2021/07/25 07:17:59;;;;;;;3.63;3.33;;;22.70;70.20;;;;;;5065533;28;20468;-27
2021/07/25 07:20:25;;;;;;;3.00;2.75;;;22.80;69.80;;;;;;5061558;28;20025;-25
2021/07/25 07:23:01;;;;;;;3.08;2.85;;;23.00;69.60;;;;;;5064509;28;20081;-27
2021/07/25 07:25:29;;;;;;;3.13;2.92;;;23.10;69.20;;;;;;5064428;28;20050;-27
2021/07/25 07:27:55;;;;;;;3.20;2.97;;;23.10;68.60;;;;;;5067433;28;20036;-26
2021/07/25 07:30:21;;;;;;;3.20;2.90;;;23.10;69.00;;;;;;5038725;28;20029;-29
2021/07/25 07:32:46;;;;;;;3.85;3.40;;;23.20;69.10;;;;;;5064375;28;20562;-30
2021/07/25 07:35:12;;;;;;;3.85;3.53;;;23.10;68.90;;;;;;5058814;28;20033;-26
2021/07/25 07:37:37;;;;;;;2.80;2.58;;;23.10;69.30;;;;;;5048316;28;20123;-29
2021/07/25 07:40:04;;;;;;;2.92;2.58;;;23.10;69.40;;;;;;5064208;28;20054;-29
2021/07/25 07:42:29;;;;;;;3.15;2.80;;;23.10;69.10;;;;;;5049705;28;20155;-27
2021/07/25 07:44:55;;;;;;;3.05;2.80;;;23.20;69.10;;;;;;5064254;28;20111;-25
2021/07/25 07:47:22;;;;;;;3.00;2.90;;;23.30;68.80;;;;;;5061566;28;20036;-29
2021/07/25 07:49:51;;;;;;;2.78;2.60;;;23.30;68.90;;;;;;5063705;28;20060;-27
2021/07/25 07:52:16;;;;;;;3.40;3.10;;;23.30;68.70;;;;;;5042586;28;20028;-29
2021/07/25 07:54:42;;;;;;;3.97;2.47;;;23.30;69.00;;;;;;5056469;28;20035;-27
2021/07/25 07:57:08;;;;;;;3.08;2.88;;;23.40;68.40;;;;;;5061119;28;20675;-28
2021/07/25 07:59:33;;;;;;;2.80;2.60;;;23.50;68.30;;;;;;5061684;28;20078;-29
2021/07/25 08:01:59;;;;;;;3.95;2.67;;;23.50;68.40;;;;;;5060411;28;20056;-29
2021/07/25 08:04:25;;;;;;;2.55;2.35;;;23.50;68.20;;;;;;5063205;28;20035;-28
2021/07/25 08:06:50;;;;;;;2.47;2.28;;;23.50;68.10;;;;;;5062581;28;20032;-28
2021/07/25 08:09:16;;;;;;;2.30;2.20;;;23.60;68.00;;;;;;5060975;28;20040;-25
2021/07/25 08:11:45;;;;;;;2.33;2.13;;;23.60;67.90;;;;;;5071354;28;20097;-31
2021/07/25 08:14:15;;;;;;;2.20;2.10;;;23.60;67.90;;;;;;5065822;28;20724;-30
2021/07/25 08:16:41;;;;;;;2.40;2.30;;;23.60;67.70;;;;;;5065291;28;20025;-31
2021/07/25 08:19:07;;;;;;;2.95;2.30;;;23.70;67.70;;;;;;5064583;28;20028;-27
2021/07/25 08:21:33;;;;;;;2.95;2.75;;;23.80;67.50;;;;;;5058722;28;20106;-32
2021/07/25 08:23:58;;;;;;;2.90;2.55;;;23.80;67.10;;;;;;5065124;28;20501;-28
2021/07/25 08:26:24;;;;;;;2.28;2.17;;;23.80;67.30;;;;;;5063271;28;20073;-26
2021/07/25 08:28:49;;;;;;;2.30;2.10;;;23.70;67.40;;;;;;5069695;28;20063;-25
2021/07/25 08:31:15;;;;;;;2.40;2.30;;;23.80;67.40;;;;;;5064993;28;20032;-27
2021/07/25 08:33:41;;;;;;;2.80;2.70;;;23.80;67.40;;;;;;5058872;28;20036;-26
2021/07/25 08:36:06;;;;;;;3.20;2.20;;;23.80;67.40;;;;;;5056388;28;20453;-29
2021/07/25 08:38:32;;;;;;;2.67;2.47;;;23.80;67.30;;;;;;5056796;28;20492;-27
2021/07/25 08:41:13;;;;;;;2.42;2.22;;;23.80;67.30;;;;;;5063909;28;20017;-33
2021/07/25 08:43:40;;;;;;;2.47;2.28;;;23.90;67.40;;;;;;5045284;28;20437;-27
2021/07/25 08:46:14;;;;;;;2.22;2.03;;;23.90;67.30;;;;;;5066270;28;20016;-30
2021/07/25 08:48:46;;;;;;;4.68;2.35;;;23.90;67.30;;;;;;5043299;28;20045;-28
2021/07/25 08:51:18;;;;;;;2.60;2.25;;;23.90;67.30;;;;;;5043919;28;20032;-27
2021/07/25 08:53:57;;;;;;;2.67;2.22;;;23.90;67.20;;;;;;5060158;28;20111;-30
2021/07/25 08:56:25;;;;;;;2.53;2.42;;;24.00;67.10;;;;;;5041655;28;20033;-25
2021/07/25 08:58:51;;;;;;;2.50;2.30;;;24.00;67.10;;;;;;5063761;28;20563;-31
2021/07/25 09:01:17;;;;;;;4.05;2.60;;;24.00;67.10;;;;;;5037824;28;20029;-25
2021/07/25 09:03:42;;;;;;;2.20;2.10;;;24.10;67.70;;;;;;5023871;28;20416;-30
2021/07/25 09:06:08;;;;;;;2.33;2.10;;;24.10;66.90;;;;;;5044099;28;20155;-28
2021/07/25 09:08:34;;;;;;;2.80;2.63;;;24.10;67.00;;;;;;5044816;28;20032;-29
2021/07/25 09:11:04;;;;;;;2.78;2.60;;;24.10;67.10;;;;;;5022389;28;20052;-31
2021/07/25 09:13:30;;;;;;;2.60;2.40;;;24.20;66.90;;;;;;5021815;28;20120;-29
2021/07/25 09:15:56;;;;;;;2.30;2.20;;;24.20;66.90;;;;;;5061882;28;20104;-25
2021/07/25 09:18:21;;;;;;;3.20;2.17;;;24.20;67.00;;;;;;5038000;28;20037;-27
2021/07/25 09:20:47;;;;;;;2.40;2.20;;;24.20;67.00;;;;;;5054879;28;20516;-29
2021/07/25 09:23:13;;;;;;;4.60;2.30;;;24.20;66.90;;;;;;5032539;28;20516;-27
2021/07/25 09:25:41;;;;;;;2.60;2.42;;;24.20;67.10;;;;;;5052015;28;20021;-30
2021/07/25 09:28:06;;;;;;;2.60;2.40;;;24.20;67.00;;;;;;5056817;28;20036;-31
2021/07/25 09:30:32;;;;;;;2.55;2.35;;;24.20;67.00;;;;;;5053543;28;20047;-29
2021/07/25 09:32:58;;;;;;;2.38;2.20;;;24.20;67.00;;;;;;5058294;28;20029;-28
2021/07/25 09:35:35;;;;;;;2.47;2.28;;;24.20;67.10;;;;;;5016733;28;20025;-29
2021/07/25 09:38:03;;;;;;;3.47;2.38;;;24.20;67.10;;;;;;5060543;28;20045;-28
2021/07/25 09:40:31;;;;;;;2.42;2.33;;;24.30;67.00;;;;;;5056589;28;20100;-25
2021/07/25 09:43:24;;;;;;;2.28;2.17;;;24.30;66.90;;;;;;5051917;28;20720;-27
2021/07/25 09:45:57;;;;;;;2.45;2.25;;;24.30;67.10;;;;;;5056878;28;20051;-24
2021/07/25 09:48:30;;;;;;;2.00;1.90;;;24.30;67.00;;;;;;5053126;28;20481;-26
2021/07/25 09:51:00;;;;;;;2.80;2.60;;;24.30;67.10;;;;;;5058782;28;20021;-30
2021/07/25 09:53:44;;;;;;;2.88;2.67;;;24.30;67.10;;;;;;5053151;28;20132;-27
2021/07/25 09:56:11;;;;;;;2.20;2.10;;;24.40;66.80;;;;;;5059819;28;20705;-26
2021/07/25 09:58:37;;;;;;;2.50;2.30;;;24.30;66.80;;;;;;5049357;28;20041;-29
2021/07/25 10:01:02;;;;;;;2.28;2.17;;;24.30;66.80;;;;;;5046695;28;20088;-28
2021/07/25 10:03:32;;;;;;;2.47;2.38;;;24.40;66.70;;;;;;5054128;28;20017;-26
2021/07/25 10:05:58;;;;;;;2.53;2.33;;;24.40;66.70;;;;;;5055421;28;20032;-28
2021/07/25 10:08:24;;;;;;;3.10;2.90;;;24.40;66.60;;;;;;5042860;28;20041;-28
2021/07/25 10:10:52;;;;;;;2.95;2.75;;;24.40;66.50;;;;;;5063070;28;20025;-32
2021/07/25 10:13:23;;;;;;;2.67;2.58;;;24.40;66.50;;;;;;5051978;28;20055;-28
2021/07/25 10:15:56;;;;;;;2.60;2.50;;;24.40;66.40;;;;;;5055496;28;20029;-27
2021/07/25 10:18:22;;;;;;;2.83;2.63;;;24.50;66.20;;;;;;5035292;28;20020;-23
2021/07/25 10:20:59;;;;;;;2.75;2.55;;;24.50;66.20;;;;;;5057075;28;20032;-28
2021/07/25 10:23:36;;;;;;;2.85;2.75;;;24.50;66.30;;;;;;5054929;28;20029;-29
2021/07/25 10:26:02;;;;;;;2.88;2.67;;;24.40;66.70;;;;;;5051044;28;20413;-28
2021/07/25 10:28:31;;;;;;;3.05;2.85;;;24.40;67.00;;;;;;5052610;28;20033;-29
2021/07/25 10:30:58;;;;;;;3.45;3.03;;;24.40;66.90;;;;;;5063719;28;20040;-28
2021/07/25 10:33:23;;;;;;;5.05;2.60;;;24.50;67.10;;;;;;5052099;28;20097;-29
2021/07/25 10:35:49;;;;;;;2.70;2.50;;;24.40;67.20;;;;;;5033784;28;21581;-37
2021/07/25 10:38:14;;;;;;;3.10;2.90;;;24.50;66.80;;;;;;5038085;28;20028;-26
2021/07/25 10:40:40;;;;;;;2.65;2.55;;;24.50;67.00;;;;;;5055504;28;20036;-24
2021/07/25 10:43:08;;;;;;;3.17;2.97;;;24.50;67.10;;;;;;5033523;28;20025;-33
2021/07/25 10:45:35;;;;;;;3.00;2.90;;;24.50;67.10;;;;;;5017649;28;20513;-26
2021/07/25 10:48:16;;;;;;;3.50;3.20;;;24.60;67.10;;;;;;5059418;28;20044;-28
2021/07/25 10:50:42;;;;;;;3.17;2.97;;;24.60;67.00;;;;;;5039312;28;20087;-26
2021/07/25 10:53:19;;;;;;;3.38;3.17;;;24.60;67.20;;;;;;5044130;28;20454;-30
2021/07/25 10:55:45;;;;;;;3.20;3.03;;;24.60;67.20;;;;;;5041231;28;20505;-25
2021/07/25 10:58:14;;;;;;;3.30;3.10;;;24.60;67.70;;;;;;5062458;28;20054;-24
2021/07/25 11:00:45;;;;;;;3.47;3.25;;;24.60;68.60;;;;;;5061678;28;20077;-30
2021/07/25 11:03:29;;;;;;;3.50;3.30;;;24.60;68.70;;;;;;5055086;28;20028;-29
2021/07/25 11:06:12;;;;;;;3.70;3.47;;;24.60;69.10;;;;;;5056992;28;20021;-31
2021/07/25 11:08:43;;;;;;;3.60;3.40;;;24.60;68.70;;;;;;5062252;28;20051;-25
2021/07/25 11:11:34;;;;;;;3.67;3.38;;;24.60;68.80;;;;;;5068058;28;20147;-32
2021/07/25 11:14:01;;;;;;;4.15;3.88;;;24.60;69.00;;;;;;5069508;28;20025;-27
2021/07/25 11:16:32;;;;;;;3.47;3.28;;;24.70;68.30;;;;;;5067213;28;20055;-27
2021/07/25 11:19:24;;;;;;;3.42;3.22;;;24.80;68.00;;;;;;5072406;28;20085;-27
2021/07/25 11:21:56;;;;;;;3.33;3.13;;;24.70;67.90;;;;;;5063126;28;20596;-24
2021/07/25 11:24:26;;;;;;;3.38;3.17;;;24.70;67.80;;;;;;5047792;28;20068;-25
2021/07/25 11:26:52;;;;;;;3.35;2.88;;;24.70;67.50;;;;;;5065225;28;20024;-31
2021/07/25 11:29:21;;;;;;;3.42;3.28;;;24.70;67.50;;;;;;5047828;28;20044;-24
2021/07/25 11:31:48;;;;;;;3.80;3.42;;;24.80;67.50;;;;;;5067783;28;20024;-28
2021/07/25 11:34:22;;;;;;;3.25;3.13;;;24.70;67.30;;;;;;5074181;28;20126;-26
2021/07/25 11:36:54;;;;;;;3.03;2.92;;;24.70;68.30;;;;;;5058546;28;20028;-34
2021/07/25 11:39:19;;;;;;;6.28;2.58;;;24.70;67.60;;;;;;5080238;28;20509;-26
2021/07/25 11:41:45;;;;;;;3.70;3.40;;;24.70;67.50;;;;;;5076052;28;20027;-28
2021/07/25 11:44:11;;;;;;;3.40;3.20;;;24.80;67.50;;;;;;5072544;28;20055;-25
2021/07/25 11:46:46;;;;;;;2.95;2.85;;;24.90;67.10;;;;;;5079169;28;20056;-34
2021/07/25 11:49:18;;;;;;;3.60;3.40;;;24.90;67.20;;;;;;5071763;28;20036;-29
2021/07/25 11:51:48;;;;;;;3.97;3.78;;;24.80;67.50;;;;;;5053605;28;20032;-31
2021/07/25 11:54:26;;;;;;;3.30;3.00;;;24.80;67.50;;;;;;5070823;28;20064;-27
2021/07/25 11:57:00;;;;;;;3.28;3.05;;;24.90;67.50;;;;;;5071611;28;20024;-32
2021/07/25 11:59:27;;;;;;;3.17;3.03;;;24.80;67.40;;;;;;5054746;28;20116;-28
2021/07/25 12:01:53;;;;;;;4.03;3.63;;;24.90;67.50;;;;;;5072158;28;20062;-31
2021/07/25 12:04:24;;;;;;;3.58;3.38;;;25.00;66.90;;;;;;5057643;28;20396;-31
2021/07/25 12:07:17;;;;;;;2.95;2.85;;;25.00;67.00;;;;;;5068274;28;20063;-27
2021/07/25 12:09:46;;;;;;;3.30;3.10;;;24.90;67.20;;;;;;5070714;28;20047;-28
2021/07/25 12:12:18;;;;;;;2.80;2.70;;;25.00;67.20;;;;;;5071501;28;20071;-30
2021/07/25 12:14:48;;;;;;;3.08;2.97;;;25.00;66.70;;;;;;5067508;28;20021;-29
2021/07/25 12:18:03;;;;;;;3.45;3.25;;;25.10;66.70;;;;;;5064824;28;20046;-33
2021/07/25 12:20:29;;;;;;;3.38;3.22;;;25.20;66.50;;;;;;5064773;28;20037;-31
2021/07/25 12:22:55;;;;;;;3.08;2.97;;;25.10;66.50;;;;;;5072821;28;20024;-36
2021/07/25 12:25:22;;;;;;;3.53;3.33;;;25.20;66.40;;;;;;5078548;28;20754;-26
2021/07/25 12:28:01;;;;;;;3.22;3.03;;;25.10;66.40;;;;;;5070090;28;20024;-28
2021/07/25 12:30:32;;;;;;;3.53;3.33;;;25.10;66.50;;;;;;5030552;28;20036;-30
2021/07/25 12:33:03;;;;;;;3.10;2.90;;;25.10;66.60;;;;;;5032596;28;20031;-32
2021/07/25 12:35:31;;;;;;;3.63;3.42;;;25.20;66.50;;;;;;5073353;28;20044;-36
2021/07/25 12:37:59;;;;;;;3.85;3.65;;;25.10;66.40;;;;;;5070303;28;20039;-29
2021/07/25 12:40:31;;;;;;;3.42;3.22;;;25.10;66.40;;;;;;5066205;28;20069;-29
2021/07/25 12:42:56;;;;;;;3.63;3.00;;;25.20;66.40;;;;;;5074674;28;20091;-28
2021/07/25 12:45:36;;;;;;;3.53;3.33;;;25.10;66.30;;;;;;5069058;28;20476;-26
2021/07/25 12:48:13;;;;;;;3.35;3.15;;;25.20;66.40;;;;;;5062340;28;20492;-36
2021/07/25 12:50:50;;;;;;;3.75;3.13;;;25.10;66.40;;;;;;5068774;28;20028;-31
2021/07/25 12:53:30;;;;;;;3.30;3.10;;;25.20;66.20;;;;;;5067987;28;20024;-29